Time;durP1;ratioP1;P1;durP2;ratioP2;P2;SDS_P1;SDS_P2;PMS_P1;PMS_P2;Temp;Humidity;BMP_temperature;BMP_pressure;BME280_temperature;BME280_humidity;BME280_pressure;Samples;Min_cycle;Max_cycle;Signal;HPM_P1;HPM_P2
2024/04/02 00:02:00;;;;;;;2.22;1.67;;;;;;;9.80;86.25;99419.78;8373145;28;20442;-84
2024/04/02 00:06:01;;;;;;;1.95;1.52;;;;;;;9.88;83.72;99422.25;8373577;28;20347;-82
2024/04/02 00:10:01;;;;;;;2.53;1.70;;;;;;;9.77;82.31;99434.38;8357330;28;20104;-84
2024/04/02 00:14:02;;;;;;;2.10;1.42;;;;;;;9.64;82.05;99434.34;8374321;28;20057;-83
2024/04/02 00:18:04;;;;;;;1.55;1.10;;;;;;;9.86;78.34;99429.66;8371172;28;20055;-86
2024/04/02 00:22:04;;;;;;;1.85;1.33;;;;;;;9.99;76.15;99443.06;8376469;28;20075;-86
2024/04/02 00:26:05;;;;;;;3.15;1.20;;;;;;;10.04;75.17;99429.88;8384507;28;20106;-85
2024/04/02 00:30:06;;;;;;;3.35;1.30;;;;;;;10.12;74.50;99419.00;8400192;28;20096;-83
2024/04/02 00:34:07;;;;;;;3.80;1.33;;;;;;;10.02;75.11;99417.75;8374944;28;20059;-86
2024/04/02 00:38:07;;;;;;;1.88;1.38;;;;;;;9.98;76.04;99422.69;8380253;28;20483;-87
2024/04/02 00:42:10;;;;;;;1.85;1.48;;;;;;;9.96;77.94;99433.59;8375130;28;20057;-86
2024/04/02 00:46:10;;;;;;;1.83;1.45;;;;;;;9.95;79.09;99449.84;8378071;28;20497;-86
2024/04/02 00:50:13;;;;;;;2.75;1.80;;;;;;;9.96;80.50;99455.00;8368419;28;20095;-84
2024/04/02 00:54:13;;;;;;;2.30;1.75;;;;;;;10.06;80.45;99456.44;8372033;28;20061;-85
2024/04/02 00:58:14;;;;;;;2.58;1.70;;;;;;;9.88;81.39;99459.69;8359502;28;20053;-85
2024/04/02 01:02:15;;;;;;;2.50;1.40;;;;;;;9.85;80.85;99474.31;8377044;28;20493;-85
2024/04/02 01:06:16;;;;;;;1.88;1.58;;;;;;;9.94;81.19;99459.72;8378853;28;20098;-85
2024/04/02 01:10:17;;;;;;;3.35;1.63;;;;;;;9.77;81.45;99463.81;8397358;28;20025;-85
2024/04/02 01:14:17;;;;;;;5.40;1.90;;;;;;;9.67;82.68;99458.84;8351062;28;20107;-85
2024/04/02 01:18:20;;;;;;;2.33;1.38;;;;;;;9.71;81.79;99474.47;8356946;28;20045;-85
2024/04/02 01:22:20;;;;;;;3.60;1.88;;;;;;;9.65;83.98;99454.72;8358140;28;20084;-85
2024/04/02 01:26:21;;;;;;;4.65;1.95;;;;;;;9.58;85.04;99469.94;8357956;28;20049;-84
2024/04/02 01:30:22;;;;;;;20.63;2.08;;;;;;;9.39;87.56;99462.69;8357895;28;20077;-84
2024/04/02 01:34:22;;;;;;;4.15;1.80;;;;;;;9.39;89.79;99476.88;8362828;28;20413;-87
2024/04/02 01:38:24;;;;;;;2.40;1.90;;;;;;;9.12;92.28;99475.91;8354722;28;20056;-85
2024/04/02 01:42:24;;;;;;;2.70;1.67;;;;;;;9.05;93.57;99480.41;8370519;28;20130;-85
2024/04/02 01:46:25;;;;;;;1.85;1.55;;;;;;;8.99;94.99;99491.88;8366572;28;20115;-84
2024/04/02 01:50:26;;;;;;;2.58;1.40;;;;;;;8.88;96.25;99497.78;8320983;28;20103;-84
2024/04/02 01:54:26;;;;;;;4.38;1.88;;;;;;;9.01;96.67;99493.31;8339671;28;20489;-85
2024/04/02 01:58:27;;;;;;;2.53;1.80;;;;;;;8.96;96.92;99503.78;8370345;28;20052;-84
2024/04/02 02:02:27;;;;;;;5.15;2.05;;;;;;;8.96;97.49;99493.09;8359203;28;20216;-84
2024/04/02 02:06:28;;;;;;;2.53;1.70;;;;;;;9.03;97.43;99501.97;8360143;28;20064;-85
2024/04/02 02:10:29;;;;;;;3.20;1.73;;;;;;;8.84;98.11;99513.34;8360638;28;20048;-85
2024/04/02 02:14:29;;;;;;;1.88;1.33;;;;;;;8.66;100.00;99499.66;8377059;28;20053;-84
2024/04/02 02:18:31;;;;;;;2.25;1.38;;;;;;;8.60;100.00;99503.13;8375312;28;20049;-85
2024/04/02 02:22:34;;;;;;;1.83;1.10;;;;;;;8.49;100.00;99519.66;8359566;28;20088;-84
2024/04/02 02:26:36;;;;;;;2.03;1.30;;;;;;;8.45;100.00;99516.56;8361002;28;20088;-85
2024/04/02 02:30:37;;;;;;;3.47;1.65;;;;;;;8.43;100.00;99513.25;8358731;28;20088;-85
2024/04/02 02:34:39;;;;;;;4.35;1.58;;;;;;;8.53;100.00;99526.28;8359448;28;20424;-84
2024/04/02 02:38:40;;;;;;;2.10;1.30;;;;;;;8.30;100.00;99529.09;8357983;28;20084;-84
2024/04/02 02:42:40;;;;;;;3.45;1.42;;;;;;;8.31;100.00;99541.44;8374084;28;20116;-84
2024/04/02 02:46:41;;;;;;;4.15;1.50;;;;;;;8.32;100.00;99522.56;8374691;28;20497;-84
2024/04/02 02:50:42;;;;;;;2.10;1.52;;;;;;;8.19;100.00;99519.78;8376874;28;20052;-85
2024/04/02 02:54:43;;;;;;;2.67;1.42;;;;;;;8.16;100.00;99520.19;8377551;28;20064;-84
2024/04/02 02:58:43;;;;;;;2.40;1.25;;;;;;;8.12;100.00;99516.22;8387211;28;20049;-84
2024/04/02 03:02:44;;;;;;;2.40;1.90;;;;;;;8.13;100.00;99529.38;8370048;28;20057;-85
2024/04/02 03:06:44;;;;;;;1.90;1.45;;;;;;;8.11;100.00;99528.72;8391442;28;20053;-84
2024/04/02 03:11:05;;;;;;;2.05;1.38;;;;;;;8.01;100.00;99541.56;8370641;28;20049;-84
2024/04/02 03:15:05;;;;;;;;;;;;;;;7.95;100.00;99541.47;8333809;28;20053;-84
2024/04/02 03:19:06;;;;;;;3.38;1.33;;;;;;;8.05;100.00;99540.19;8346139;28;20373;-85
2024/04/02 03:23:06;;;;;;;4.97;2.08;;;;;;;8.05;100.00;99547.34;8347110;28;20084;-84
2024/04/02 03:27:07;;;;;;;2.35;1.50;;;;;;;8.17;100.00;99537.84;8359944;28;20083;-84
2024/04/02 03:31:08;;;;;;;1.85;1.40;;;;;;;8.16;100.00;99545.03;8328720;28;20096;-84
2024/04/02 03:35:09;;;;;;;1.42;1.10;;;;;;;8.04;100.00;99524.34;8359057;28;20057;-84
2024/04/02 03:39:09;;;;;;;2.13;1.50;;;;;;;8.16;100.00;99533.53;8376104;28;20045;-84
2024/04/02 03:43:11;;;;;;;2.67;1.70;;;;;;;8.03;100.00;99539.53;8357963;28;20061;-84
2024/04/02 03:47:11;;;;;;;2.05;1.60;;;;;;;8.30;100.00;99537.13;8358475;28;20088;-84
2024/04/02 03:51:14;;;;;;;2.28;1.70;;;;;;;8.08;100.00;99538.97;8360377;28;20053;-85
2024/04/02 03:55:15;;;;;;;4.28;1.73;;;;;;;8.25;100.00;99542.22;8403743;28;20040;-84
2024/04/02 03:59:15;;;;;;;1.70;1.45;;;;;;;8.15;100.00;99554.00;8392932;28;20096;-84
2024/04/02 04:03:17;;;;;;;6.05;1.60;;;;;;;8.04;100.00;99561.72;8387693;28;20033;-84
2024/04/02 04:07:18;;;;;;;2.33;1.70;;;;;;;8.23;100.00;99562.94;8382639;28;20040;-85
2024/04/02 04:11:25;;;;;;;2.92;1.80;;;;;;;8.21;100.00;99564.97;8370805;28;20087;-83
2024/04/02 04:15:26;;;;;;;4.95;2.25;;;;;;;8.11;100.00;99567.94;8362286;28;20505;-85
2024/04/02 04:19:27;;;;;;;4.68;2.53;;;;;;;8.17;100.00;99580.53;8372530;28;20095;-86
2024/04/02 04:23:28;;;;;;;2.83;2.10;;;;;;;8.17;100.00;99577.88;8356101;28;20088;-86
2024/04/02 04:27:36;;;;;;;3.22;1.90;;;;;;;8.13;100.00;99568.56;8353618;28;20084;-86
2024/04/02 04:31:45;;;;;;;2.78;2.03;;;;;;;7.96;100.00;99570.63;8354840;28;20092;-85
2024/04/02 04:35:49;;;;;;;5.38;2.22;;;;;;;8.10;100.00;99571.63;8356263;28;20092;-86
2024/04/02 04:39:50;;;;;;;4.15;2.35;;;;;;;8.07;100.00;99582.66;8387365;28;20049;-85
2024/04/02 04:43:51;;;;;;;2.33;2.00;;;;;;;7.94;100.00;99577.19;8355159;28;20048;-83
2024/04/02 04:47:52;;;;;;;3.80;2.50;;;;;;;8.12;100.00;99575.75;8351649;28;20049;-86
2024/04/02 04:51:52;;;;;;;2.53;2.30;;;;;;;8.11;100.00;99571.41;8344992;28;20500;-86
2024/04/02 04:55:59;;;;;;;3.25;2.78;;;;;;;8.08;100.00;99578.97;8352113;28;20420;-85
2024/04/02 05:00:00;;;;;;;4.85;2.67;;;;;;;7.98;100.00;99592.59;8358518;28;20134;-87
2024/04/02 05:04:00;;;;;;;2.60;2.05;;;;;;;7.95;100.00;99585.00;8356532;28;20505;-85
2024/04/02 05:08:26;;;;;;;3.45;2.50;;;;;;;8.18;100.00;99592.84;8354478;28;20053;-85
2024/04/02 05:12:26;;;;;;;3.67;2.63;;;;;;;8.11;100.00;99592.75;8370738;28;20146;-85
2024/04/02 05:16:27;;;;;;;4.95;2.33;;;;;;;8.02;100.00;99588.56;8353889;28;20092;-85
2024/04/02 05:20:28;;;;;;;5.72;2.90;;;;;;;8.24;100.00;99597.44;8369822;28;20167;-84
2024/04/02 05:24:29;;;;;;;4.43;2.47;;;;;;;8.24;100.00;99599.25;8354696;28;20571;-85
2024/04/02 05:28:30;;;;;;;5.55;2.78;;;;;;;8.28;100.00;99605.88;8354177;28;20178;-84
2024/04/02 05:32:31;;;;;;;4.05;3.20;;;;;;;8.45;100.00;99610.81;8354565;28;20053;-84
2024/04/02 05:36:31;;;;;;;9.23;2.42;;;;;;;8.47;100.00;99610.63;8358800;28;20067;-85
2024/04/02 05:40:32;;;;;;;4.15;2.95;;;;;;;8.63;100.00;99607.69;8377533;28;20135;-84
2024/04/02 05:44:33;;;;;;;4.68;3.00;;;;;;;8.55;100.00;99607.84;8361756;28;20071;-84
2024/04/02 05:48:34;;;;;;;2.58;2.15;;;;;;;8.69;100.00;99614.13;8381077;28;20041;-85
2024/04/02 05:52:35;;;;;;;5.50;3.38;;;;;;;8.83;100.00;99617.72;8371312;28;20057;-85
2024/04/02 05:56:35;;;;;;;4.15;2.63;;;;;;;8.87;100.00;99614.47;8378775;28;20068;-85
2024/04/02 06:00:36;;;;;;;3.60;3.05;;;;;;;9.00;100.00;99621.75;8380710;28;20450;-85
2024/04/02 06:04:37;;;;;;;4.03;2.40;;;;;;;9.09;100.00;99625.13;8376438;28;20049;-85
2024/04/02 06:08:37;;;;;;;8.35;4.10;;;;;;;9.21;100.00;99607.53;8373903;28;20071;-84
2024/04/02 06:12:43;;;;;;;2.47;2.20;;;;;;;9.35;100.00;99615.44;8389687;28;20048;-85
2024/04/02 06:16:44;;;;;;;6.05;2.33;;;;;;;9.42;100.00;99618.16;8385965;28;20127;-85
2024/04/02 06:20:45;;;;;;;7.53;2.92;;;;;;;9.56;100.00;99619.91;8389113;28;20045;-85
2024/04/02 06:24:45;;;;;;;5.38;3.40;;;;;;;9.67;100.00;99608.63;8387074;28;20053;-85
2024/04/02 06:28:46;;;;;;;5.35;2.30;;;;;;;9.69;100.00;99605.75;8372481;28;20049;-86
2024/04/02 06:32:46;;;;;;;3.88;3.10;;;;;;;9.82;98.96;99605.81;8386475;28;20057;-85
2024/04/02 06:36:48;;;;;;;3.25;2.70;;;;;;;9.92;98.20;99621.50;8369040;28;20505;-86
2024/04/02 06:40:48;;;;;;;2.83;2.42;;;;;;;10.09;97.01;99609.44;8380077;28;20087;-86
2024/04/02 06:44:49;;;;;;;6.18;3.17;;;;;;;10.33;94.35;99616.09;8385371;28;20108;-84
2024/04/02 06:48:50;;;;;;;4.25;2.67;;;;;;;10.40;92.95;99618.78;8392198;28;20049;-84
2024/04/02 06:52:51;;;;;;;4.43;2.10;;;;;;;10.43;91.09;99624.59;8400623;28;20064;-81
2024/04/02 06:56:51;;;;;;;5.45;2.03;;;;;;;10.51;91.24;99626.22;8397235;28;20408;-80
2024/04/02 07:00:52;;;;;;;5.28;2.33;;;;;;;10.76;89.60;99619.28;8370326;28;20061;-79
2024/04/02 07:04:53;;;;;;;4.72;2.55;;;;;;;10.99;87.14;99634.13;8386494;28;20060;-80
2024/04/02 07:08:55;;;;;;;22.33;2.80;;;;;;;10.89;85.58;99637.19;8384434;28;20084;-80
2024/04/02 07:12:55;;;;;;;12.68;2.30;;;;;;;10.77;85.00;99630.81;8364339;28;20084;-80
2024/04/02 07:16:56;;;;;;;3.78;1.98;;;;;;;10.79;83.85;99652.88;8381871;28;20490;-86
2024/04/02 07:20:58;;;;;;;2.40;1.65;;;;;;;10.71;83.33;99659.22;8368409;28;20468;-84
2024/04/02 07:24:59;;;;;;;4.00;2.30;;;;;;;11.04;83.37;99643.19;8364000;28;20103;-85
2024/04/02 07:28:59;;;;;;;3.00;1.40;;;;;;;11.22;81.98;99655.94;8364724;28;20057;-86
2024/04/02 07:33:00;;;;;;;3.90;2.03;;;;;;;11.38;80.45;99668.94;8370112;28;20057;-85
2024/04/02 07:37:01;;;;;;;5.40;1.92;;;;;;;11.43;79.38;99663.75;8337042;28;20068;-85
2024/04/02 07:41:02;;;;;;;3.08;1.95;;;;;;;11.37;79.44;99669.16;8344097;28;20068;-84
2024/04/02 07:45:03;;;;;;;3.50;1.85;;;;;;;11.69;76.22;99668.28;8369326;28;20060;-84
2024/04/02 07:49:03;;;;;;;5.85;2.35;;;;;;;11.50;76.54;99692.47;8377018;28;20052;-86
2024/04/02 07:53:04;;;;;;;5.30;2.20;;;;;;;11.52;76.48;99698.44;8361920;28;20526;-87
2024/04/02 07:57:06;;;;;;;3.25;1.80;;;;;;;11.14;77.45;99704.44;8369380;28;20069;-86
2024/04/02 08:01:07;;;;;;;4.13;2.00;;;;;;;11.13;77.53;99706.28;8377728;28;20089;-86
2024/04/02 08:05:08;;;;;;;3.90;1.90;;;;;;;11.19;77.41;99712.69;8356343;28;20092;-86
2024/04/02 08:09:08;;;;;;;3.42;1.83;;;;;;;11.15;76.78;99701.53;8356150;28;20408;-86
2024/04/02 08:13:09;;;;;;;1.27;0.98;;;;;;;11.55;76.68;99714.09;8372834;28;20056;-85
2024/04/02 08:17:10;;;;;;;2.67;1.20;;;;;;;11.51;76.83;99716.38;8355966;28;20067;-85
2024/04/02 08:21:10;;;;;;;3.30;1.25;;;;;;;11.43;76.98;99701.31;8369775;28;20045;-84
2024/04/02 08:25:11;;;;;;;3.53;1.33;;;;;;;11.40;77.13;99717.00;8371785;28;20063;-85
2024/04/02 08:29:12;;;;;;;1.50;1.38;;;;;;;11.38;76.96;99721.75;8354268;28;20111;-85
2024/04/02 08:33:13;;;;;;;2.70;1.85;;;;;;;11.44;76.45;99724.41;8354337;28;20049;-86
2024/04/02 08:37:14;;;;;;;14.70;2.33;;;;;;;11.63;75.67;99724.66;8353897;28;20099;-83
2024/04/02 08:41:18;;;;;;;2.65;1.10;;;;;;;11.66;73.62;99719.69;8378892;28;20056;-85
2024/04/02 08:45:19;;;;;;;2.92;1.65;;;;;;;12.12;73.12;99705.34;8381461;28;20076;-87
2024/04/02 08:49:20;;;;;;;2.83;1.63;;;;;;;12.27;71.96;99708.59;8376381;28;20049;-84
2024/04/02 08:53:20;;;;;;;5.97;1.80;;;;;;;12.15;72.11;99721.03;8385912;28;20076;-84
2024/04/02 08:57:21;;;;;;;2.92;1.50;;;;;;;12.42;70.97;99705.63;8394097;28;20057;-84
2024/04/02 09:01:22;;;;;;;5.18;1.30;;;;;;;12.49;69.79;99719.03;8391141;28;20057;-84
2024/04/02 09:05:23;;;;;;;2.67;1.15;;;;;;;12.11;72.29;99733.22;8389649;28;20087;-84
2024/04/02 09:09:25;;;;;;;1.70;1.15;;;;;;;12.13;69.48;99723.09;8385502;28;20045;-84
2024/04/02 09:13:25;;;;;;;2.80;1.30;;;;;;;11.96;69.04;99730.78;8377670;28;20084;-86
2024/04/02 09:17:26;;;;;;;1.65;0.85;;;;;;;12.00;68.80;99747.31;8382831;28;20049;-85
2024/04/02 09:21:27;;;;;;;3.53;1.23;;;;;;;12.64;66.13;99724.94;8375003;28;20064;-86
2024/04/02 09:25:28;;;;;;;3.05;1.20;;;;;;;12.64;65.62;99741.06;8378790;28;20445;-86
2024/04/02 09:29:28;;;;;;;2.00;0.90;;;;;;;12.44;65.30;99743.84;8375551;28;20456;-86
2024/04/02 09:33:30;;;;;;;5.35;1.20;;;;;;;13.09;62.32;99770.59;8359155;28;20069;-82
2024/04/02 09:37:39;;;;;;;4.97;1.13;;;;;;;13.30;61.89;99751.44;8361007;28;20119;-82
2024/04/02 09:41:41;;;;;;;8.45;1.50;;;;;;;13.33;61.18;99748.31;8375204;28;20072;-83
2024/04/02 09:45:43;;;;;;;1.00;0.60;;;;;;;13.22;60.56;99749.03;8362394;28;20110;-82
2024/04/02 09:49:44;;;;;;;2.03;0.90;;;;;;;13.99;58.25;99752.28;8383342;28;20052;-80
2024/04/02 09:53:45;;;;;;;7.10;1.33;;;;;;;13.23;60.00;99745.31;8378745;28;20057;-82
2024/04/02 09:57:47;;;;;;;4.22;1.15;;;;;;;12.97;60.84;99748.94;8371999;28;20068;-82
2024/04/02 10:01:48;;;;;;;1.80;1.00;;;;;;;12.52;61.89;99785.78;8375369;28;20092;-85
2024/04/02 10:05:51;;;;;;;2.65;0.80;;;;;;;13.02;61.27;99757.22;8360158;28;20099;-84
2024/04/02 10:10:06;;;;;;;4.03;1.05;;;;;;;12.68;61.92;99753.06;8367025;28;20511;-84
2024/04/02 10:14:12;;;;;;;1.08;0.63;;;;;;;12.57;62.33;99757.22;8373861;28;20056;-85
2024/04/02 10:18:15;;;;;;;5.22;1.02;;;;;;;12.58;62.74;99756.19;8393285;28;20049;-84
2024/04/02 10:22:36;;;;;;;2.08;0.90;;;;;;;12.98;61.46;99748.72;8389202;28;20061;-85
2024/04/02 10:26:38;;;;;;;1.63;0.93;;;;;;;12.67;61.11;99768.38;8372827;28;20489;-84
2024/04/02 10:30:46;;;;;;;1.52;1.02;;;;;;;12.54;61.95;99764.91;8366877;28;20127;-85
2024/04/02 10:34:47;;;;;;;3.13;1.10;;;;;;;13.35;60.20;99781.19;8384907;28;20098;-85
2024/04/02 10:38:47;;;;;;;3.60;1.05;;;;;;;13.44;58.83;99762.94;8362677;28;20049;-81
2024/04/02 10:42:49;;;;;;;2.22;1.05;;;;;;;12.96;56.91;99772.31;8360243;28;20053;-82
2024/04/02 10:46:50;;;;;;;3.45;0.93;;;;;;;13.51;56.05;99785.22;8393356;28;20057;-83
2024/04/02 10:50:51;;;;;;;1.92;0.82;;;;;;;13.22;56.39;99775.94;8386644;28;20050;-82
2024/04/02 10:54:52;;;;;;;2.53;1.25;;;;;;;13.18;56.96;99777.41;8377665;28;20061;-82
2024/04/02 10:58:54;;;;;;;3.22;1.17;;;;;;;12.75;58.66;99774.53;8376115;28;20045;-85
2024/04/02 11:02:55;;;;;;;5.20;1.25;;;;;;;12.60;59.50;99794.41;8365089;28;20095;-83
2024/04/02 11:06:56;;;;;;;2.50;1.15;;;;;;;12.71;60.52;99779.50;8363002;28;20087;-86
2024/04/02 11:10:57;;;;;;;4.15;1.58;;;;;;;12.79;60.00;99799.94;8379258;28;20081;-83
2024/04/02 11:14:58;;;;;;;5.80;1.30;;;;;;;12.73;59.82;99795.41;8380829;28;20052;-83
2024/04/02 11:19:00;;;;;;;4.10;1.08;;;;;;;12.99;59.26;99800.66;8371360;28;20069;-84
2024/04/02 11:27:27;;;;;;;4.18;1.20;;;;;;;12.95;59.97;99818.25;8352252;28;20053;-86
2024/04/02 11:31:28;;;;;;;2.78;1.08;;;;;;;13.02;60.63;99802.94;8337657;28;20052;-84
2024/04/02 11:35:29;;;;;;;2.75;1.10;;;;;;;13.24;59.31;99806.97;8381042;28;20049;-82
2024/04/02 11:39:29;;;;;;;1.20;0.90;;;;;;;12.95;58.78;99818.25;8378009;28;20060;-82
2024/04/02 11:43:30;;;;;;;10.93;1.70;;;;;;;12.65;59.16;99813.41;8380913;28;20056;-86
2024/04/02 11:47:36;;;;;;;2.53;0.82;;;;;;;12.46;59.63;99843.03;8377571;28;20429;-84
2024/04/02 11:51:36;;;;;;;2.88;1.05;;;;;;;12.43;62.02;99846.16;8361531;28;20146;-87
2024/04/02 11:55:38;;;;;;;1.55;1.10;;;;;;;12.29;64.08;99831.91;8361473;28;20057;-86
2024/04/02 12:03:58;;;;;;;3.15;1.10;;;;;;;12.76;61.71;99840.69;8380308;28;20084;-86
2024/04/02 12:07:59;;;;;;;3.15;0.95;;;;;;;12.99;61.85;99849.03;8362865;28;20041;-84
2024/04/02 12:12:00;;;;;;;4.32;1.00;;;;;;;12.75;61.41;99836.34;8362709;28;20053;-85
2024/04/02 12:16:00;;;;;;;1.02;0.88;;;;;;;12.91;59.70;99825.09;8381997;28;20520;-84
2024/04/02 12:20:03;;;;;;;2.50;1.05;;;;;;;13.24;59.04;99824.97;8384940;28;20560;-81
2024/04/02 12:24:04;;;;;;;5.72;1.10;;;;;;;13.47;56.66;99827.06;8380239;28;20098;-81
2024/04/02 12:28:05;;;;;;;2.03;0.88;;;;;;;13.67;55.69;99851.97;8367320;28;20202;-80
2024/04/02 12:32:10;;;;;;;1.35;0.75;;;;;;;13.57;54.88;99855.16;8383244;28;20061;-79
2024/04/02 12:36:10;;;;;;;1.85;1.00;;;;;;;14.73;53.65;99859.09;8380554;28;20126;-81
2024/04/02 12:40:11;;;;;;;2.00;1.00;;;;;;;14.22;54.59;99849.44;8395489;28;20078;-83
2024/04/02 12:44:12;;;;;;;2.80;0.77;;;;;;;13.88;54.62;99853.47;8391074;28;20060;-80
2024/04/02 12:48:12;;;;;;;3.38;1.13;;;;;;;14.52;53.71;99844.19;8385173;28;20048;-83
2024/04/02 12:52:13;;;;;;;9.55;1.00;;;;;;;14.04;52.85;99830.53;8375022;28;20053;-80
2024/04/02 12:56:14;;;;;;;2.55;1.13;;;;;;;13.71;54.13;99837.06;8382469;28;20060;-82
2024/04/02 13:00:15;;;;;;;2.17;0.90;;;;;;;13.67;55.06;99825.06;8377423;28;20049;-82
2024/04/02 13:04:15;;;;;;;1.15;1.00;;;;;;;13.33;56.92;99849.72;8376328;28;20081;-83
2024/04/02 13:08:16;;;;;;;1.10;0.95;;;;;;;13.09;59.53;99860.19;8376176;28;20056;-83
2024/04/02 13:12:16;;;;;;;1.38;0.98;;;;;;;14.58;56.14;99850.53;8373867;28;20064;-82
2024/04/02 13:16:30;;;;;;;1.70;1.00;;;;;;;13.69;55.71;99860.66;8350338;28;20119;-81
2024/04/02 13:20:30;;;;;;;1.52;1.00;;;;;;;13.53;55.22;99853.09;8365902;28;20102;-80
2024/04/02 13:24:31;;;;;;;3.33;1.10;;;;;;;13.88;56.21;99857.00;8372784;28;20049;-81
2024/04/02 13:28:34;;;;;;;4.82;1.50;;;;;;;13.48;57.58;99858.31;8356373;28;20053;-81
2024/04/02 13:32:35;;;;;;;15.85;2.00;;;;;;;13.87;59.09;99862.59;8376521;28;20088;-81
2024/04/02 13:36:36;;;;;;;2.60;1.65;;;;;;;13.23;60.75;99855.59;8375267;28;20494;-80
2024/04/02 13:40:39;;;;;;;1.92;0.98;;;;;;;13.24;59.62;99879.59;8372558;28;20092;-82
2024/04/02 13:44:41;;;;;;;5.93;1.20;;;;;;;13.17;60.06;99870.66;8371782;28;20080;-82
2024/04/02 13:48:42;;;;;;;6.93;1.80;;;;;;;12.15;68.15;99946.59;8357393;28;20201;-85
2024/04/02 13:52:43;;;;;;;5.22;1.20;;;;;;;10.72;100.00;99906.53;8356922;28;20088;-85
2024/04/02 13:56:46;;;;;;;1.75;1.08;;;;;;;10.83;97.54;99884.53;8356422;28;20067;-84
2024/04/02 14:00:47;;;;;;;3.47;1.45;;;;;;;11.07;92.37;99896.59;8378052;28;20083;-83
2024/04/02 14:04:47;;;;;;;2.58;1.10;;;;;;;12.06;79.42;99891.44;8367137;28;20092;-82
2024/04/02 14:08:48;;;;;;;1.17;1.02;;;;;;;12.72;73.49;99882.47;8382319;28;20044;-80
2024/04/02 14:12:49;;;;;;;4.07;1.70;;;;;;;13.37;69.82;99883.25;8389082;28;20049;-79
2024/04/02 14:16:49;;;;;;;2.63;1.15;;;;;;;12.63;74.10;99885.38;8395856;28;20386;-83
2024/04/02 14:20:53;;;;;;;2.88;1.30;;;;;;;13.98;66.78;99871.84;8365597;28;20083;-79
2024/04/02 14:24:54;;;;;;;4.05;1.42;;;;;;;13.78;66.22;99878.19;8389057;28;20056;-80
2024/04/02 14:28:54;;;;;;;1.98;1.13;;;;;;;14.08;65.08;99872.16;8390575;28;20049;-79
2024/04/02 14:32:55;;;;;;;2.15;1.05;;;;;;;12.98;64.21;99861.66;8392606;28;20457;-79
2024/04/02 14:36:56;;;;;;;2.55;1.08;;;;;;;14.23;60.79;99866.41;8374857;28;20086;-80
2024/04/02 14:41:06;;;;;;;2.05;1.02;;;;;;;14.46;58.45;99870.16;8389129;28;20051;-80
2024/04/02 14:45:07;;;;;;;2.35;1.20;;;;;;;14.81;58.33;99857.97;8374004;28;20061;-82
2024/04/02 14:49:07;;;;;;;2.63;1.40;;;;;;;13.70;59.65;99869.56;8394231;28;20083;-82
2024/04/02 14:53:08;;;;;;;4.60;1.60;;;;;;;15.05;59.27;99857.03;8382529;28;20052;-81
2024/04/02 14:57:12;;;;;;;2.53;1.23;;;;;;;13.77;59.57;99878.44;8380750;28;20075;-79
2024/04/02 15:01:13;;;;;;;3.70;1.70;;;;;;;14.04;60.06;99876.31;8377206;28;20076;-80
2024/04/02 15:05:13;;;;;;;2.85;1.63;;;;;;;14.68;57.29;99884.03;8360491;28;20067;-81
2024/04/02 15:09:17;;;;;;;6.95;1.52;;;;;;;13.61;59.27;99893.22;8360881;28;20041;-81
2024/04/02 15:13:18;;;;;;;1.90;1.30;;;;;;;13.93;57.80;99891.34;8376422;28;20092;-81
2024/04/02 15:17:18;;;;;;;4.88;1.75;;;;;;;13.90;57.05;99864.88;8359007;28;20055;-81
2024/04/02 15:21:19;;;;;;;11.50;1.40;;;;;;;13.61;57.67;99885.16;8358202;28;20049;-80
2024/04/02 15:25:20;;;;;;;3.30;1.63;;;;;;;13.49;57.92;99895.78;8373426;28;20056;-80
2024/04/02 15:29:21;;;;;;;1.77;1.48;;;;;;;13.60;58.42;99893.44;8372376;28;20502;-81
2024/04/02 15:33:21;;;;;;;4.20;1.75;;;;;;;13.47;59.27;99876.34;8354844;28;20421;-80
2024/04/02 15:37:22;;;;;;;4.03;2.20;;;;;;;13.51;58.70;99885.63;8379479;28;20075;-81
2024/04/02 15:41:23;;;;;;;2.47;1.70;;;;;;;13.77;57.27;99878.44;8389857;28;20056;-81
2024/04/02 15:45:23;;;;;;;3.00;1.15;;;;;;;13.37;57.83;99900.22;8380728;28;20136;-80
2024/04/02 15:49:24;;;;;;;3.47;1.75;;;;;;;13.46;57.18;99890.84;8376258;28;20053;-82
2024/04/02 15:53:25;;;;;;;5.47;1.33;;;;;;;13.19;57.55;99894.69;8377218;28;20513;-82
2024/04/02 15:57:26;;;;;;;4.95;2.17;;;;;;;13.37;57.23;99894.84;8377608;28;20061;-83
2024/04/02 16:01:26;;;;;;;6.70;1.98;;;;;;;13.03;57.75;99906.75;8380583;28;20045;-80
2024/04/02 16:05:27;;;;;;;2.88;1.95;;;;;;;13.12;57.38;99905.47;8383866;28;20053;-85
2024/04/02 16:09:28;;;;;;;4.53;1.70;;;;;;;12.96;55.23;99904.06;8369903;28;20502;-84
2024/04/02 16:13:28;;;;;;;3.38;1.10;;;;;;;13.22;54.00;99905.06;8341841;28;20049;-80
2024/04/02 16:17:30;;;;;;;3.15;1.73;;;;;;;13.81;53.63;99910.06;8341039;28;20049;-82
2024/04/02 16:21:31;;;;;;;6.57;2.25;;;;;;;13.81;54.25;99906.56;8339443;28;20482;-80
2024/04/02 16:25:32;;;;;;;4.18;1.15;;;;;;;13.01;55.81;99918.75;8351819;28;20090;-83
2024/04/02 16:29:33;;;;;;;3.28;1.45;;;;;;;13.19;56.28;99894.69;8374681;28;20053;-84
2024/04/02 16:33:34;;;;;;;2.70;1.27;;;;;;;13.15;56.12;99896.97;8357150;28;20052;-82
2024/04/02 16:37:34;;;;;;;4.60;1.63;;;;;;;13.28;56.18;99896.09;8355846;28;20092;-81
2024/04/02 16:41:35;;;;;;;5.50;1.60;;;;;;;13.20;56.90;99889.13;8359047;28;20493;-82
2024/04/02 16:45:38;;;;;;;4.13;1.98;;;;;;;13.18;57.92;99895.72;8376909;28;20049;-84
2024/04/02 16:49:39;;;;;;;6.97;1.80;;;;;;;12.79;58.25;99902.88;8365558;28;20053;-86
2024/04/02 16:53:40;;;;;;;5.80;1.90;;;;;;;12.69;59.03;99913.28;8367641;28;20049;-88
2024/04/02 16:57:43;;;;;;;4.15;1.70;;;;;;;12.66;58.37;99903.75;8360538;28;20048;-86
2024/04/02 17:01:44;;;;;;;2.95;1.88;;;;;;;12.60;58.51;99906.47;8380063;28;20080;-86
2024/04/02 17:05:45;;;;;;;2.65;1.35;;;;;;;12.59;57.89;99915.56;8361664;28;20089;-87
2024/04/02 17:09:48;;;;;;;2.90;1.70;;;;;;;12.68;56.97;99907.06;8362929;28;20068;-87
2024/04/02 17:13:56;;;;;;;4.47;1.70;;;;;;;12.65;56.35;99909.34;8362369;28;20052;-86
2024/04/02 17:17:56;;;;;;;4.82;1.73;;;;;;;12.64;56.46;99905.00;8367628;28;20060;-86
2024/04/02 17:21:57;;;;;;;3.95;1.80;;;;;;;12.66;55.65;99911.81;8367758;28;20052;-86
2024/04/02 17:25:58;;;;;;;1.17;0.80;;;;;;;12.61;55.95;99914.31;8363754;28;20390;-85
2024/04/02 17:30:01;;;;;;;1.65;0.82;;;;;;;12.56;55.82;99921.34;8361263;28;20083;-86
2024/04/02 17:34:02;;;;;;;1.40;1.15;;;;;;;12.49;56.48;99923.22;8367645;28;20060;-86
2024/04/02 17:38:03;;;;;;;2.40;1.08;;;;;;;12.50;56.22;99923.03;8375281;28;20057;-85
2024/04/02 17:42:06;;;;;;;3.63;1.52;;;;;;;12.58;56.39;99917.41;8375773;28;20064;-85
2024/04/02 17:46:07;;;;;;;6.32;1.90;;;;;;;12.54;56.99;99926.94;8383553;28;20061;-85
2024/04/02 17:50:08;;;;;;;1.90;1.15;;;;;;;12.36;57.30;99927.59;8400534;28;20060;-85
2024/04/02 17:54:10;;;;;;;4.65;1.50;;;;;;;12.32;57.45;99926.34;8399013;28;20072;-84
2024/04/02 17:58:11;;;;;;;3.75;1.55;;;;;;;12.19;58.20;99931.72;8399002;28;20053;-82
2024/04/02 18:02:11;;;;;;;2.63;1.08;;;;;;;12.07;58.26;99926.13;8383610;28;20087;-86
2024/04/02 18:06:13;;;;;;;1.45;0.95;;;;;;;12.04;58.81;99933.78;8384234;28;20060;-87
2024/04/02 18:10:16;;;;;;;3.15;1.40;;;;;;;11.92;59.33;99938.09;8383894;28;20048;-87
2024/04/02 18:14:18;;;;;;;2.05;1.08;;;;;;;11.83;59.81;99942.03;8393015;28;20056;-85
2024/04/02 18:18:21;;;;;;;3.72;1.42;;;;;;;11.96;59.24;99952.75;8375094;28;20075;-86
2024/04/02 18:22:22;;;;;;;4.32;1.35;;;;;;;11.85;59.95;99954.22;8367381;28;20084;-87
2024/04/02 18:26:23;;;;;;;3.65;1.70;;;;;;;11.93;59.91;99954.00;8378536;28;20187;-84
2024/04/02 18:30:23;;;;;;;3.95;1.30;;;;;;;12.03;59.93;99950.94;8390382;28;20113;-87
2024/04/02 18:34:25;;;;;;;3.70;1.20;;;;;;;11.91;59.86;99950.69;8390015;28;20041;-89
2024/04/02 18:38:26;;;;;;;1.80;1.08;;;;;;;11.73;60.10;99956.63;8401593;28;20097;-87
2024/04/02 18:42:27;;;;;;;3.65;1.33;;;;;;;11.88;60.06;99964.53;8381941;28;20057;-87
2024/04/02 18:46:29;;;;;;;3.80;1.40;;;;;;;11.83;60.48;99969.69;8370439;28;20057;-87
2024/04/02 18:50:31;;;;;;;7.63;1.55;;;;;;;11.91;60.30;99961.44;8382123;28;20056;-86
2024/04/02 18:54:31;;;;;;;2.67;1.30;;;;;;;11.92;59.85;99965.78;8392811;28;20072;-85
2024/04/02 18:58:32;;;;;;;3.38;1.30;;;;;;;11.83;60.40;99980.44;8388099;28;20429;-85
2024/04/02 19:02:34;;;;;;;1.73;1.35;;;;;;;11.89;60.68;99968.06;8372421;28;20049;-85
2024/04/02 19:06:35;;;;;;;2.25;1.17;;;;;;;11.86;60.56;99971.16;8335983;28;20065;-85